sensor_id;sensor_type;location;lat;lon;timestamp;temperature;humidity
5940;DHT22;2995;-31.998;115.906;2023-06-22T00:01:23;8.80;99.90
5940;DHT22;2995;-31.998;115.906;2023-06-22T00:03:55;8.80;99.90
5940;DHT22;2995;-31.998;115.906;2023-06-22T00:06:26;8.90;99.90
5940;DHT22;2995;-31.998;115.906;2023-06-22T00:08:59;9.00;99.90
5940;DHT22;2995;-31.998;115.906;2023-06-22T00:11:31;9.00;99.90
5940;DHT22;2995;-31.998;115.906;2023-06-22T00:14:02;9.00;99.90
5940;DHT22;2995;-31.998;115.906;2023-06-22T00:16:33;9.00;99.90
5940;DHT22;2995;-31.998;115.906;2023-06-22T00:19:05;9.00;99.90
5940;DHT22;2995;-31.998;115.906;2023-06-22T00:21:38;9.10;99.90
5940;DHT22;2995;-31.998;115.906;2023-06-22T00:24:12;9.10;99.90
5940;DHT22;2995;-31.998;115.906;2023-06-22T00:26:44;9.10;99.90
5940;DHT22;2995;-31.998;115.906;2023-06-22T00:29:16;9.20;99.90
5940;DHT22;2995;-31.998;115.906;2023-06-22T00:31:47;9.20;99.90
5940;DHT22;2995;-31.998;115.906;2023-06-22T00:34:18;9.40;99.90
5940;DHT22;2995;-31.998;115.906;2023-06-22T00:36:50;9.50;99.90
5940;DHT22;2995;-31.998;115.906;2023-06-22T00:39:23;9.50;99.90
5940;DHT22;2995;-31.998;115.906;2023-06-22T00:41:55;9.50;99.90
5940;DHT22;2995;-31.998;115.906;2023-06-22T00:44:26;9.70;99.90
5940;DHT22;2995;-31.998;115.906;2023-06-22T00:46:57;9.70;99.90
5940;DHT22;2995;-31.998;115.906;2023-06-22T00:49:30;9.70;99.90
5940;DHT22;2995;-31.998;115.906;2023-06-22T00:52:01;9.70;99.90
5940;DHT22;2995;-31.998;115.906;2023-06-22T00:54:34;9.70;99.90
5940;DHT22;2995;-31.998;115.906;2023-06-22T00:57:06;9.70;99.90
5940;DHT22;2995;-31.998;115.906;2023-06-22T00:59:39;9.80;99.90
5940;DHT22;2995;-31.998;115.906;2023-06-22T01:02:11;9.90;99.90
5940;DHT22;2995;-31.998;115.906;2023-06-22T01:04:42;10.00;99.90
5940;DHT22;2995;-31.998;115.906;2023-06-22T01:07:22;10.10;99.90
5940;DHT22;2995;-31.998;115.906;2023-06-22T01:10:06;10.10;99.90
5940;DHT22;2995;-31.998;115.906;2023-06-22T01:12:42;10.30;99.90
5940;DHT22;2995;-31.998;115.906;2023-06-22T01:15:18;10.50;99.90
5940;DHT22;2995;-31.998;115.906;2023-06-22T01:17:54;10.60;99.90
5940;DHT22;2995;-31.998;115.906;2023-06-22T01:20:28;10.70;99.90
5940;DHT22;2995;-31.998;115.906;2023-06-22T01:23:09;10.90;99.90
5940;DHT22;2995;-31.998;115.906;2023-06-22T01:25:48;11.10;99.90
5940;DHT22;2995;-31.998;115.906;2023-06-22T01:28:47;11.20;99.90
5940;DHT22;2995;-31.998;115.906;2023-06-22T01:31:22;11.30;99.90
5940;DHT22;2995;-31.998;115.906;2023-06-22T01:33:56;11.30;99.90
5940;DHT22;2995;-31.998;115.906;2023-06-22T01:36:28;11.50;99.90
5940;DHT22;2995;-31.998;115.906;2023-06-22T01:39:00;11.40;99.90
5940;DHT22;2995;-31.998;115.906;2023-06-22T01:41:39;11.50;99.90
5940;DHT22;2995;-31.998;115.906;2023-06-22T01:44:14;11.50;99.90
5940;DHT22;2995;-31.998;115.906;2023-06-22T01:46:46;11.60;99.90
5940;DHT22;2995;-31.998;115.906;2023-06-22T01:49:18;11.70;99.90
5940;DHT22;2995;-31.998;115.906;2023-06-22T01:51:50;11.60;99.90
5940;DHT22;2995;-31.998;115.906;2023-06-22T01:54:22;11.70;99.90
5940;DHT22;2995;-31.998;115.906;2023-06-22T01:56:53;11.70;99.90
5940;DHT22;2995;-31.998;115.906;2023-06-22T01:59:32;11.70;99.90
5940;DHT22;2995;-31.998;115.906;2023-06-22T02:02:07;11.70;99.90
5940;DHT22;2995;-31.998;115.906;2023-06-22T02:04:46;11.60;99.90
5940;DHT22;2995;-31.998;115.906;2023-06-22T02:07:20;11.60;99.90
5940;DHT22;2995;-31.998;115.906;2023-06-22T02:09:54;11.90;99.90
5940;DHT22;2995;-31.998;115.906;2023-06-22T02:12:26;12.10;99.90
5940;DHT22;2995;-31.998;115.906;2023-06-22T02:15:01;12.40;99.90
5940;DHT22;2995;-31.998;115.906;2023-06-22T02:17:33;12.60;99.90
5940;DHT22;2995;-31.998;115.906;2023-06-22T02:20:05;12.60;99.90
5940;DHT22;2995;-31.998;115.906;2023-06-22T02:22:36;12.70;99.90
5940;DHT22;2995;-31.998;115.906;2023-06-22T02:25:08;12.80;99.90
5940;DHT22;2995;-31.998;115.906;2023-06-22T02:27:39;12.90;99.90
5940;DHT22;2995;-31.998;115.906;2023-06-22T02:30:13;13.10;99.90
5940;DHT22;2995;-31.998;115.906;2023-06-22T02:32:45;13.20;99.90
5940;DHT22;2995;-31.998;115.906;2023-06-22T02:35:16;13.30;99.90
5940;DHT22;2995;-31.998;115.906;2023-06-22T02:37:47;13.40;99.90
5940;DHT22;2995;-31.998;115.906;2023-06-22T02:40:20;13.50;99.90
5940;DHT22;2995;-31.998;115.906;2023-06-22T02:42:51;13.50;99.90
5940;DHT22;2995;-31.998;115.906;2023-06-22T02:45:25;13.50;99.90
5940;DHT22;2995;-31.998;115.906;2023-06-22T02:47:56;13.50;99.90
5940;DHT22;2995;-31.998;115.906;2023-06-22T02:50:27;13.60;99.90
5940;DHT22;2995;-31.998;115.906;2023-06-22T02:52:58;13.80;99.90
5940;DHT22;2995;-31.998;115.906;2023-06-22T02:55:31;13.70;99.90
5940;DHT22;2995;-31.998;115.906;2023-06-22T02:58:04;13.70;99.90
5940;DHT22;2995;-31.998;115.906;2023-06-22T03:00:39;13.90;99.90
5940;DHT22;2995;-31.998;115.906;2023-06-22T03:03:10;13.90;99.90
5940;DHT22;2995;-31.998;115.906;2023-06-22T03:05:41;14.00;99.90
5940;DHT22;2995;-31.998;115.906;2023-06-22T03:08:12;14.00;99.90
5940;DHT22;2995;-31.998;115.906;2023-06-22T03:10:45;14.00;99.90
5940;DHT22;2995;-31.998;115.906;2023-06-22T03:13:17;14.10;99.90
5940;DHT22;2995;-31.998;115.906;2023-06-22T03:15:51;14.30;99.90
5940;DHT22;2995;-31.998;115.906;2023-06-22T03:18:22;14.40;99.90
5940;DHT22;2995;-31.998;115.906;2023-06-22T03:20:53;14.40;99.90
5940;DHT22;2995;-31.998;115.906;2023-06-22T03:23:26;14.50;99.90
5940;DHT22;2995;-31.998;115.906;2023-06-22T03:25:58;14.50;99.90
5940;DHT22;2995;-31.998;115.906;2023-06-22T03:28:30;14.60;99.90
5940;DHT22;2995;-31.998;115.906;2023-06-22T03:31:04;14.70;99.90
5940;DHT22;2995;-31.998;115.906;2023-06-22T03:33:36;14.70;99.90
5940;DHT22;2995;-31.998;115.906;2023-06-22T03:36:08;14.80;99.90
5940;DHT22;2995;-31.998;115.906;2023-06-22T03:38:39;14.70;99.90
5940;DHT22;2995;-31.998;115.906;2023-06-22T03:41:10;14.60;99.90
5940;DHT22;2995;-31.998;115.906;2023-06-22T03:43:42;14.70;99.90
5940;DHT22;2995;-31.998;115.906;2023-06-22T03:46:15;14.70;99.90
5940;DHT22;2995;-31.998;115.906;2023-06-22T03:48:46;14.90;99.90
5940;DHT22;2995;-31.998;115.906;2023-06-22T03:51:17;14.80;99.90
5940;DHT22;2995;-31.998;115.906;2023-06-22T03:53:48;14.80;99.90
5940;DHT22;2995;-31.998;115.906;2023-06-22T03:56:21;14.70;99.90
5940;DHT22;2995;-31.998;115.906;2023-06-22T03:58:53;14.50;99.90
5940;DHT22;2995;-31.998;115.906;2023-06-22T04:01:27;14.50;99.90
5940;DHT22;2995;-31.998;115.906;2023-06-22T04:03:58;14.50;99.90
5940;DHT22;2995;-31.998;115.906;2023-06-22T04:06:29;14.50;99.90
5940;DHT22;2995;-31.998;115.906;2023-06-22T04:09:01;14.60;99.90
5940;DHT22;2995;-31.998;115.906;2023-06-22T04:11:34;14.80;99.90
5940;DHT22;2995;-31.998;115.906;2023-06-22T04:14:05;14.90;99.90
5940;DHT22;2995;-31.998;115.906;2023-06-22T04:16:39;14.90;99.90
5940;DHT22;2995;-31.998;115.906;2023-06-22T04:19:10;14.90;99.90
5940;DHT22;2995;-31.998;115.906;2023-06-22T04:21:44;15.00;99.90
5940;DHT22;2995;-31.998;115.906;2023-06-22T04:24:16;15.20;99.90
5940;DHT22;2995;-31.998;115.906;2023-06-22T04:26:48;15.20;99.90
5940;DHT22;2995;-31.998;115.906;2023-06-22T04:29:23;15.20;99.90
5940;DHT22;2995;-31.998;115.906;2023-06-22T04:31:58;15.40;99.90
5940;DHT22;2995;-31.998;115.906;2023-06-22T04:34:31;15.60;99.90
5940;DHT22;2995;-31.998;115.906;2023-06-22T04:37:02;15.80;99.90
5940;DHT22;2995;-31.998;115.906;2023-06-22T04:39:35;15.80;99.90
5940;DHT22;2995;-31.998;115.906;2023-06-22T04:42:08;15.90;99.90
5940;DHT22;2995;-31.998;115.906;2023-06-22T04:44:39;15.90;99.90
5940;DHT22;2995;-31.998;115.906;2023-06-22T04:47:12;16.00;99.90
5940;DHT22;2995;-31.998;115.906;2023-06-22T04:49:44;16.00;99.90
5940;DHT22;2995;-31.998;115.906;2023-06-22T04:52:16;16.10;99.90
5940;DHT22;2995;-31.998;115.906;2023-06-22T04:54:54;16.30;99.90
5940;DHT22;2995;-31.998;115.906;2023-06-22T04:57:28;16.40;99.90
5940;DHT22;2995;-31.998;115.906;2023-06-22T05:00:02;16.50;99.90
5940;DHT22;2995;-31.998;115.906;2023-06-22T05:02:44;16.60;99.90
5940;DHT22;2995;-31.998;115.906;2023-06-22T05:05:16;16.50;99.90
5940;DHT22;2995;-31.998;115.906;2023-06-22T05:07:49;16.50;99.90
5940;DHT22;2995;-31.998;115.906;2023-06-22T05:10:21;16.50;99.90
5940;DHT22;2995;-31.998;115.906;2023-06-22T05:12:53;16.60;99.90
5940;DHT22;2995;-31.998;115.906;2023-06-22T05:15:25;16.60;99.90
5940;DHT22;2995;-31.998;115.906;2023-06-22T05:18:00;16.50;99.90
5940;DHT22;2995;-31.998;115.906;2023-06-22T05:20:33;16.50;99.90
5940;DHT22;2995;-31.998;115.906;2023-06-22T05:23:04;16.60;99.90
5940;DHT22;2995;-31.998;115.906;2023-06-22T05:25:35;16.60;99.90
5940;DHT22;2995;-31.998;115.906;2023-06-22T05:28:07;16.70;99.90
5940;DHT22;2995;-31.998;115.906;2023-06-22T05:30:39;16.70;99.90
5940;DHT22;2995;-31.998;115.906;2023-06-22T05:33:13;16.70;99.90
5940;DHT22;2995;-31.998;115.906;2023-06-22T05:35:44;16.50;99.90
5940;DHT22;2995;-31.998;115.906;2023-06-22T05:38:15;16.50;99.90
5940;DHT22;2995;-31.998;115.906;2023-06-22T05:40:47;16.30;99.90
5940;DHT22;2995;-31.998;115.906;2023-06-22T05:43:18;16.30;99.90
5940;DHT22;2995;-31.998;115.906;2023-06-22T05:45:49;16.50;99.90
5940;DHT22;2995;-31.998;115.906;2023-06-22T05:48:22;16.50;99.90
5940;DHT22;2995;-31.998;115.906;2023-06-22T05:50:54;16.60;99.90
5940;DHT22;2995;-31.998;115.906;2023-06-22T05:53:27;16.70;99.90
5940;DHT22;2995;-31.998;115.906;2023-06-22T05:55:58;16.60;99.90
5940;DHT22;2995;-31.998;115.906;2023-06-22T05:58:30;16.60;99.90
5940;DHT22;2995;-31.998;115.906;2023-06-22T06:01:01;16.60;99.90
5940;DHT22;2995;-31.998;115.906;2023-06-22T06:03:34;16.50;99.90
5940;DHT22;2995;-31.998;115.906;2023-06-22T06:06:09;16.50;99.90
5940;DHT22;2995;-31.998;115.906;2023-06-22T06:08:41;16.60;99.90
5940;DHT22;2995;-31.998;115.906;2023-06-22T06:11:13;16.50;99.90
5940;DHT22;2995;-31.998;115.906;2023-06-22T06:13:44;16.40;99.90
5940;DHT22;2995;-31.998;115.906;2023-06-22T06:16:15;16.40;99.90
5940;DHT22;2995;-31.998;115.906;2023-06-22T06:18:48;16.40;99.90
5940;DHT22;2995;-31.998;115.906;2023-06-22T06:21:21;16.30;99.90
5940;DHT22;2995;-31.998;115.906;2023-06-22T06:23:53;16.30;99.90
5940;DHT22;2995;-31.998;115.906;2023-06-22T06:26:24;16.30;99.90
5940;DHT22;2995;-31.998;115.906;2023-06-22T06:29:01;16.30;99.90
5940;DHT22;2995;-31.998;115.906;2023-06-22T06:31:32;16.30;99.90
5940;DHT22;2995;-31.998;115.906;2023-06-22T06:34:06;16.40;99.90
5940;DHT22;2995;-31.998;115.906;2023-06-22T06:36:38;16.60;99.90
5940;DHT22;2995;-31.998;115.906;2023-06-22T06:39:11;16.50;99.90
5940;DHT22;2995;-31.998;115.906;2023-06-22T06:41:42;16.60;99.90
5940;DHT22;2995;-31.998;115.906;2023-06-22T06:44:13;16.50;99.90
5940;DHT22;2995;-31.998;115.906;2023-06-22T06:46:44;16.40;99.90
5940;DHT22;2995;-31.998;115.906;2023-06-22T06:49:18;16.40;99.90
5940;DHT22;2995;-31.998;115.906;2023-06-22T06:51:49;16.30;99.90
5940;DHT22;2995;-31.998;115.906;2023-06-22T06:54:20;16.10;99.90
5940;DHT22;2995;-31.998;115.906;2023-06-22T06:56:51;16.00;99.90
5940;DHT22;2995;-31.998;115.906;2023-06-22T06:59:22;16.00;99.90
5940;DHT22;2995;-31.998;115.906;2023-06-22T07:01:54;15.90;99.90
5940;DHT22;2995;-31.998;115.906;2023-06-22T07:04:27;15.90;99.90
5940;DHT22;2995;-31.998;115.906;2023-06-22T07:07:01;15.90;99.90
5940;DHT22;2995;-31.998;115.906;2023-06-22T07:09:34;15.80;99.90
5940;DHT22;2995;-31.998;115.906;2023-06-22T07:12:06;15.80;99.90
5940;DHT22;2995;-31.998;115.906;2023-06-22T07:14:37;15.70;99.90
5940;DHT22;2995;-31.998;115.906;2023-06-22T07:17:08;15.70;99.90
5940;DHT22;2995;-31.998;115.906;2023-06-22T07:19:42;15.50;99.90
5940;DHT22;2995;-31.998;115.906;2023-06-22T07:22:13;15.40;99.90
5940;DHT22;2995;-31.998;115.906;2023-06-22T07:24:44;15.50;99.90
5940;DHT22;2995;-31.998;115.906;2023-06-22T07:27:16;15.50;99.90
5940;DHT22;2995;-31.998;115.906;2023-06-22T07:29:48;15.60;99.90
5940;DHT22;2995;-31.998;115.906;2023-06-22T07:32:19;15.70;99.90
5940;DHT22;2995;-31.998;115.906;2023-06-22T07:34:52;15.70;99.90
5940;DHT22;2995;-31.998;115.906;2023-06-22T07:37:23;15.70;99.90
5940;DHT22;2995;-31.998;115.906;2023-06-22T07:39:55;15.70;99.90
5940;DHT22;2995;-31.998;115.906;2023-06-22T07:42:27;15.70;99.90
5940;DHT22;2995;-31.998;115.906;2023-06-22T07:45:01;15.70;99.90
5940;DHT22;2995;-31.998;115.906;2023-06-22T07:47:33;15.70;99.90
5940;DHT22;2995;-31.998;115.906;2023-06-22T07:50:07;15.80;99.90
5940;DHT22;2995;-31.998;115.906;2023-06-22T07:52:38;15.80;99.90
5940;DHT22;2995;-31.998;115.906;2023-06-22T07:55:10;15.70;99.90
5940;DHT22;2995;-31.998;115.906;2023-06-22T07:57:41;15.60;99.90
5940;DHT22;2995;-31.998;115.906;2023-06-22T08:00:13;15.60;99.90
5940;DHT22;2995;-31.998;115.906;2023-06-22T08:02:46;15.40;99.90
5940;DHT22;2995;-31.998;115.906;2023-06-22T08:05:19;15.20;99.90
5940;DHT22;2995;-31.998;115.906;2023-06-22T08:07:51;15.20;99.90
5940;DHT22;2995;-31.998;115.906;2023-06-22T08:10:23;14.90;99.90
5940;DHT22;2995;-31.998;115.906;2023-06-22T08:12:54;14.90;99.90
5940;DHT22;2995;-31.998;115.906;2023-06-22T08:15:27;14.90;99.90
5940;DHT22;2995;-31.998;115.906;2023-06-22T08:17:59;14.80;99.90
5940;DHT22;2995;-31.998;115.906;2023-06-22T08:20:33;14.80;99.90
5940;DHT22;2995;-31.998;115.906;2023-06-22T08:23:04;14.90;99.90
5940;DHT22;2995;-31.998;115.906;2023-06-22T08:25:35;14.80;99.90
5940;DHT22;2995;-31.998;115.906;2023-06-22T08:28:07;14.90;99.90
5940;DHT22;2995;-31.998;115.906;2023-06-22T08:30:38;14.80;99.90
5940;DHT22;2995;-31.998;115.906;2023-06-22T08:33:09;14.70;99.90
5940;DHT22;2995;-31.998;115.906;2023-06-22T08:35:43;14.70;99.90
5940;DHT22;2995;-31.998;115.906;2023-06-22T08:38:14;14.60;99.90
5940;DHT22;2995;-31.998;115.906;2023-06-22T08:40:46;14.60;99.90
5940;DHT22;2995;-31.998;115.906;2023-06-22T08:43:18;14.60;99.90
5940;DHT22;2995;-31.998;115.906;2023-06-22T08:45:49;14.60;99.90
5940;DHT22;2995;-31.998;115.906;2023-06-22T08:48:20;14.60;99.90
5940;DHT22;2995;-31.998;115.906;2023-06-22T08:50:53;14.60;99.90
5940;DHT22;2995;-31.998;115.906;2023-06-22T08:53:25;14.70;99.90
5940;DHT22;2995;-31.998;115.906;2023-06-22T08:55:56;14.50;99.90
5940;DHT22;2995;-31.998;115.906;2023-06-22T08:58:27;14.50;99.90
5940;DHT22;2995;-31.998;115.906;2023-06-22T09:00:59;14.50;99.90
5940;DHT22;2995;-31.998;115.906;2023-06-22T09:03:30;14.50;99.90
5940;DHT22;2995;-31.998;115.906;2023-06-22T09:06:06;14.50;99.90
5940;DHT22;2995;-31.998;115.906;2023-06-22T09:08:37;14.50;99.90
5940;DHT22;2995;-31.998;115.906;2023-06-22T09:11:08;14.50;99.90
5940;DHT22;2995;-31.998;115.906;2023-06-22T09:13:40;14.50;99.90
5940;DHT22;2995;-31.998;115.906;2023-06-22T09:16:11;14.50;99.90
5940;DHT22;2995;-31.998;115.906;2023-06-22T09:18:42;14.50;99.90
5940;DHT22;2995;-31.998;115.906;2023-06-22T09:21:16;14.40;99.90
5940;DHT22;2995;-31.998;115.906;2023-06-22T09:23:48;14.40;99.90
5940;DHT22;2995;-31.998;115.906;2023-06-22T09:26:21;14.40;99.90
5940;DHT22;2995;-31.998;115.906;2023-06-22T09:28:52;14.30;99.90
5940;DHT22;2995;-31.998;115.906;2023-06-22T09:31:24;14.30;99.90
5940;DHT22;2995;-31.998;115.906;2023-06-22T09:33:55;14.30;99.90
5940;DHT22;2995;-31.998;115.906;2023-06-22T09:36:29;14.30;99.90
5940;DHT22;2995;-31.998;115.906;2023-06-22T09:39:00;14.20;99.90
5940;DHT22;2995;-31.998;115.906;2023-06-22T09:41:34;14.30;99.90
5940;DHT22;2995;-31.998;115.906;2023-06-22T09:44:05;14.20;99.90
5940;DHT22;2995;-31.998;115.906;2023-06-22T09:46:36;14.30;99.90
5940;DHT22;2995;-31.998;115.906;2023-06-22T09:49:08;14.40;99.90
5940;DHT22;2995;-31.998;115.906;2023-06-22T09:51:41;14.40;99.90
5940;DHT22;2995;-31.998;115.906;2023-06-22T09:54:12;14.40;99.90
5940;DHT22;2995;-31.998;115.906;2023-06-22T09:56:43;14.30;99.90
5940;DHT22;2995;-31.998;115.906;2023-06-22T09:59:15;14.30;99.90
5940;DHT22;2995;-31.998;115.906;2023-06-22T10:01:46;14.30;99.90
5940;DHT22;2995;-31.998;115.906;2023-06-22T10:04:17;14.40;99.90
5940;DHT22;2995;-31.998;115.906;2023-06-22T10:06:50;14.40;99.90
5940;DHT22;2995;-31.998;115.906;2023-06-22T10:09:22;14.40;99.90
5940;DHT22;2995;-31.998;115.906;2023-06-22T10:11:53;14.50;99.90
5940;DHT22;2995;-31.998;115.906;2023-06-22T10:14:24;14.50;99.90
5940;DHT22;2995;-31.998;115.906;2023-06-22T10:16:57;14.50;99.90
5940;DHT22;2995;-31.998;115.906;2023-06-22T10:19:29;14.50;99.90
5940;DHT22;2995;-31.998;115.906;2023-06-22T10:22:02;14.50;99.90
5940;DHT22;2995;-31.998;115.906;2023-06-22T10:24:33;14.60;99.90
5940;DHT22;2995;-31.998;115.906;2023-06-22T10:27:07;14.60;99.90
5940;DHT22;2995;-31.998;115.906;2023-06-22T10:29:38;14.60;99.90
5940;DHT22;2995;-31.998;115.906;2023-06-22T10:32:09;14.60;99.90
5940;DHT22;2995;-31.998;115.906;2023-06-22T10:34:41;14.60;99.90
5940;DHT22;2995;-31.998;115.906;2023-06-22T10:37:14;14.70;99.90
5940;DHT22;2995;-31.998;115.906;2023-06-22T10:39:45;14.70;99.90
5940;DHT22;2995;-31.998;115.906;2023-06-22T10:42:17;14.70;99.90
5940;DHT22;2995;-31.998;115.906;2023-06-22T10:44:48;14.80;99.90
5940;DHT22;2995;-31.998;115.906;2023-06-22T10:47:19;14.80;99.90
5940;DHT22;2995;-31.998;115.906;2023-06-22T10:49:50;14.90;99.90
5940;DHT22;2995;-31.998;115.906;2023-06-22T10:52:24;14.90;99.90
5940;DHT22;2995;-31.998;115.906;2023-06-22T10:54:55;14.90;99.90
5940;DHT22;2995;-31.998;115.906;2023-06-22T10:57:26;15.00;99.90
5940;DHT22;2995;-31.998;115.906;2023-06-22T10:59:57;15.00;99.90
5940;DHT22;2995;-31.998;115.906;2023-06-22T11:02:29;15.00;99.90
5940;DHT22;2995;-31.998;115.906;2023-06-22T11:05:00;15.00;99.90
5940;DHT22;2995;-31.998;115.906;2023-06-22T11:07:35;14.90;99.90
5940;DHT22;2995;-31.998;115.906;2023-06-22T11:10:07;14.90;99.90
5940;DHT22;2995;-31.998;115.906;2023-06-22T11:12:38;15.00;99.90
5940;DHT22;2995;-31.998;115.906;2023-06-22T11:15:10;14.90;99.90
5940;DHT22;2995;-31.998;115.906;2023-06-22T11:17:41;14.90;99.90
5940;DHT22;2995;-31.998;115.906;2023-06-22T11:20:13;14.90;99.90
5940;DHT22;2995;-31.998;115.906;2023-06-22T11:22:46;14.80;99.90
5940;DHT22;2995;-31.998;115.906;2023-06-22T11:25:17;14.80;99.90
5940;DHT22;2995;-31.998;115.906;2023-06-22T11:27:49;14.70;99.90
5940;DHT22;2995;-31.998;115.906;2023-06-22T11:30:21;14.50;99.90
5940;DHT22;2995;-31.998;115.906;2023-06-22T11:32:53;14.40;99.90
5940;DHT22;2995;-31.998;115.906;2023-06-22T11:35:24;14.30;99.90
5940;DHT22;2995;-31.998;115.906;2023-06-22T11:37:57;14.30;99.90
5940;DHT22;2995;-31.998;115.906;2023-06-22T11:40:28;14.50;99.90
5940;DHT22;2995;-31.998;115.906;2023-06-22T11:43:00;14.50;99.90
5940;DHT22;2995;-31.998;115.906;2023-06-22T11:45:31;14.50;99.90
5940;DHT22;2995;-31.998;115.906;2023-06-22T11:48:03;14.50;99.90
5940;DHT22;2995;-31.998;115.906;2023-06-22T11:50:34;14.40;99.90
5940;DHT22;2995;-31.998;115.906;2023-06-22T11:53:08;14.40;99.90
5940;DHT22;2995;-31.998;115.906;2023-06-22T11:55:39;14.30;99.90
5940;DHT22;2995;-31.998;115.906;2023-06-22T11:58:10;14.30;99.90
5940;DHT22;2995;-31.998;115.906;2023-06-22T12:00:41;14.40;99.90
5940;DHT22;2995;-31.998;115.906;2023-06-22T12:03:13;14.40;99.90
5940;DHT22;2995;-31.998;115.906;2023-06-22T12:05:45;14.40;99.90
5940;DHT22;2995;-31.998;115.906;2023-06-22T12:08:18;14.50;99.90
5940;DHT22;2995;-31.998;115.906;2023-06-22T12:10:50;14.50;99.90
5940;DHT22;2995;-31.998;115.906;2023-06-22T12:13:22;14.40;99.90
5940;DHT22;2995;-31.998;115.906;2023-06-22T12:15:53;14.40;99.90
5940;DHT22;2995;-31.998;115.906;2023-06-22T12:18:24;14.40;99.90
5940;DHT22;2995;-31.998;115.906;2023-06-22T12:20:55;14.30;99.90
5940;DHT22;2995;-31.998;115.906;2023-06-22T12:23:29;14.20;99.90
5940;DHT22;2995;-31.998;115.906;2023-06-22T12:26:00;14.20;99.90
5940;DHT22;2995;-31.998;115.906;2023-06-22T12:28:32;14.20;99.90
5940;DHT22;2995;-31.998;115.906;2023-06-22T12:31:03;14.20;99.90
5940;DHT22;2995;-31.998;115.906;2023-06-22T12:33:34;14.20;99.90
5940;DHT22;2995;-31.998;115.906;2023-06-22T12:36:06;14.10;99.90
5940;DHT22;2995;-31.998;115.906;2023-06-22T12:38:39;14.10;99.90
5940;DHT22;2995;-31.998;115.906;2023-06-22T12:41:10;14.10;99.90
5940;DHT22;2995;-31.998;115.906;2023-06-22T12:43:42;14.10;99.90
5940;DHT22;2995;-31.998;115.906;2023-06-22T12:46:13;14.10;99.90
5940;DHT22;2995;-31.998;115.906;2023-06-22T12:48:45;14.10;99.90
5940;DHT22;2995;-31.998;115.906;2023-06-22T12:51:22;14.10;99.90
5940;DHT22;2995;-31.998;115.906;2023-06-22T12:53:55;14.10;99.90
5940;DHT22;2995;-31.998;115.906;2023-06-22T12:56:26;14.10;99.90
5940;DHT22;2995;-31.998;115.906;2023-06-22T12:58:58;14.10;99.90
5940;DHT22;2995;-31.998;115.906;2023-06-22T13:01:29;14.10;99.90
5940;DHT22;2995;-31.998;115.906;2023-06-22T13:04:01;14.10;99.90
5940;DHT22;2995;-31.998;115.906;2023-06-22T13:06:32;14.10;99.90
5940;DHT22;2995;-31.998;115.906;2023-06-22T13:09:06;14.00;99.90
5940;DHT22;2995;-31.998;115.906;2023-06-22T13:11:37;13.90;99.90
5940;DHT22;2995;-31.998;115.906;2023-06-22T13:14:08;13.90;99.90
5940;DHT22;2995;-31.998;115.906;2023-06-22T13:16:40;13.90;99.90
5940;DHT22;2995;-31.998;115.906;2023-06-22T13:19:11;13.80;99.90
5940;DHT22;2995;-31.998;115.906;2023-06-22T13:21:42;13.80;99.90
5940;DHT22;2995;-31.998;115.906;2023-06-22T13:24:15;13.80;99.90
5940;DHT22;2995;-31.998;115.906;2023-06-22T13:26:47;13.70;99.90
5940;DHT22;2995;-31.998;115.906;2023-06-22T13:29:18;13.70;99.90
5940;DHT22;2995;-31.998;115.906;2023-06-22T13:31:49;13.70;99.90
5940;DHT22;2995;-31.998;115.906;2023-06-22T13:34:20;13.60;99.90
5940;DHT22;2995;-31.998;115.906;2023-06-22T13:36:51;13.60;99.90
5940;DHT22;2995;-31.998;115.906;2023-06-22T13:39:25;13.50;99.90
5940;DHT22;2995;-31.998;115.906;2023-06-22T13:41:56;13.50;99.90
5940;DHT22;2995;-31.998;115.906;2023-06-22T13:44:27;13.40;99.90
5940;DHT22;2995;-31.998;115.906;2023-06-22T13:46:59;13.40;99.90
5940;DHT22;2995;-31.998;115.906;2023-06-22T13:49:30;13.40;99.90
5940;DHT22;2995;-31.998;115.906;2023-06-22T13:52:02;13.50;99.90
5940;DHT22;2995;-31.998;115.906;2023-06-22T13:54:40;13.60;99.90
5940;DHT22;2995;-31.998;115.906;2023-06-22T13:57:11;13.60;99.90
5940;DHT22;2995;-31.998;115.906;2023-06-22T13:59:43;13.70;99.90
5940;DHT22;2995;-31.998;115.906;2023-06-22T14:02:14;13.70;99.90
5940;DHT22;2995;-31.998;115.906;2023-06-22T14:04:46;13.60;99.90
5940;DHT22;2995;-31.998;115.906;2023-06-22T14:07:17;13.60;99.90
5940;DHT22;2995;-31.998;115.906;2023-06-22T14:09:51;13.60;99.90
5940;DHT22;2995;-31.998;115.906;2023-06-22T14:12:22;13.50;99.90
5940;DHT22;2995;-31.998;115.906;2023-06-22T14:14:54;13.40;99.90
5940;DHT22;2995;-31.998;115.906;2023-06-22T14:17:25;13.40;99.90
5940;DHT22;2995;-31.998;115.906;2023-06-22T14:19:56;13.50;99.90
5940;DHT22;2995;-31.998;115.906;2023-06-22T14:22:28;13.40;99.90
5940;DHT22;2995;-31.998;115.906;2023-06-22T14:25:01;13.40;99.90
5940;DHT22;2995;-31.998;115.906;2023-06-22T14:27:33;13.40;99.90
5940;DHT22;2995;-31.998;115.906;2023-06-22T14:30:05;13.40;99.90
5940;DHT22;2995;-31.998;115.906;2023-06-22T14:32:36;13.50;99.90
5940;DHT22;2995;-31.998;115.906;2023-06-22T14:35:08;13.40;99.90
5940;DHT22;2995;-31.998;115.906;2023-06-22T14:37:39;13.40;99.90
5940;DHT22;2995;-31.998;115.906;2023-06-22T14:40:13;13.50;99.90
5940;DHT22;2995;-31.998;115.906;2023-06-22T14:42:45;13.50;99.90
5940;DHT22;2995;-31.998;115.906;2023-06-22T14:45:16;13.60;99.90
5940;DHT22;2995;-31.998;115.906;2023-06-22T14:47:47;13.60;99.90
5940;DHT22;2995;-31.998;115.906;2023-06-22T14:50:19;13.50;99.90
5940;DHT22;2995;-31.998;115.906;2023-06-22T14:52:50;13.50;99.90
5940;DHT22;2995;-31.998;115.906;2023-06-22T14:55:23;13.50;99.90
5940;DHT22;2995;-31.998;115.906;2023-06-22T14:57:55;13.50;99.90
5940;DHT22;2995;-31.998;115.906;2023-06-22T15:00:26;13.50;99.90
5940;DHT22;2995;-31.998;115.906;2023-06-22T15:02:57;13.50;99.90
5940;DHT22;2995;-31.998;115.906;2023-06-22T15:05:28;13.50;99.90
5940;DHT22;2995;-31.998;115.906;2023-06-22T15:07:59;13.50;99.90
5940;DHT22;2995;-31.998;115.906;2023-06-22T15:10:33;13.50;99.90
5940;DHT22;2995;-31.998;115.906;2023-06-22T15:13:04;13.50;99.90
5940;DHT22;2995;-31.998;115.906;2023-06-22T15:15:36;13.40;99.90
5940;DHT22;2995;-31.998;115.906;2023-06-22T15:18:07;13.40;99.90
5940;DHT22;2995;-31.998;115.906;2023-06-22T15:20:39;13.50;99.90
5940;DHT22;2995;-31.998;115.906;2023-06-22T15:23:12;13.50;99.90
5940;DHT22;2995;-31.998;115.906;2023-06-22T15:25:46;13.40;99.90
5940;DHT22;2995;-31.998;115.906;2023-06-22T15:28:17;13.40;99.90
5940;DHT22;2995;-31.998;115.906;2023-06-22T15:30:49;13.40;99.90
5940;DHT22;2995;-31.998;115.906;2023-06-22T15:33:21;13.40;99.90
5940;DHT22;2995;-31.998;115.906;2023-06-22T15:35:53;13.30;99.90
5940;DHT22;2995;-31.998;115.906;2023-06-22T15:38:25;13.30;99.90
5940;DHT22;2995;-31.998;115.906;2023-06-22T15:40:58;13.30;99.90
5940;DHT22;2995;-31.998;115.906;2023-06-22T15:43:29;13.30;99.90
5940;DHT22;2995;-31.998;115.906;2023-06-22T15:46:01;13.30;99.90
5940;DHT22;2995;-31.998;115.906;2023-06-22T15:48:32;13.30;99.90